Time,TemperatureF,DewpointF,PressureIn,WindDirection,WindDirectionDegrees,WindSpeedMPH,WindSpeedGustMPH,Humidity,HourlyPrecipIn,Conditions,Clouds,dailyrainin,SoftwareType,DateUTC
2013-03-24 00:01:00,60.8,57.2,29.67,ESE,105,0.0,0.0,88,0.00,,,0.00,WeatherCatV1.13B119,2013-03-24 05:01:00,
2013-03-24 00:06:00,60.6,57.3,29.67,ESE,120,0.0,0.0,89,0.00,,,0.00,WeatherCatV1.13B119,2013-03-24 05:06:00,
2013-03-24 00:11:00,60.7,57.1,29.67,ESE,120,0.0,0.0,88,0.00,,,0.00,WeatherCatV1.13B119,2013-03-24 05:11:00,
2013-03-24 00:16:00,60.4,56.8,29.67,ESE,120,0.0,0.0,88,0.00,,,0.00,WeatherCatV1.13B119,2013-03-24 05:16:00,
2013-03-24 00:21:00,60.2,56.9,29.67,ESE,120,0.0,0.0,89,0.00,,,0.00,WeatherCatV1.13B119,2013-03-24 05:21:00,
2013-03-24 00:26:00,60.2,57.3,29.67,ESE,121,0.0,0.0,90,0.00,,,0.00,WeatherCatV1.13B119,2013-03-24 05:26:00,
2013-03-24 00:31:00,60.1,56.8,29.67,ESE,121,0.0,0.0,89,0.00,,,0.00,WeatherCatV1.13B119,2013-03-24 05:31:00,
2013-03-24 00:36:00,59.8,56.5,29.67,ESE,120,0.0,0.0,89,0.00,,,0.00,WeatherCatV1.13B119,2013-03-24 05:36:00,
2013-03-24 00:41:00,59.4,56.2,29.67,ESE,121,0.0,0.0,89,0.00,,,0.00,WeatherCatV1.13B119,2013-03-24 05:41:00,
2013-03-24 00:46:00,59.4,56.5,29.67,ESE,115,0.0,0.0,90,0.00,,,0.00,WeatherCatV1.13B119,2013-03-24 05:46:00,
2013-03-24 00:51:00,59.3,56.1,29.67,West,279,0.0,0.0,89,0.00,,,0.00,WeatherCatV1.13B119,2013-03-24 05:51:00,
2013-03-24 00:56:00,59.1,56.2,29.67,WNW,283,0.0,0.0,90,0.00,,,0.00,WeatherCatV1.13B119,2013-03-24 05:56:00,
2013-03-24 01:01:00,58.8,55.9,29.67,WNW,283,0.0,0.0,90,0.00,,,0.00,WeatherCatV1.13B119,2013-03-24 06:01:00,
2013-03-24 01:06:00,58.4,55.5,29.68,WNW,283,0.0,0.0,90,0.00,,,0.00,WeatherCatV1.13B119,2013-03-24 06:06:00,
2013-03-24 01:11:00,58.1,55.5,29.68,WNW,283,1.0,1.0,91,0.00,,,0.00,WeatherCatV1.13B119,2013-03-24 06:11:00,
2013-03-24 01:16:00,57.8,55.2,29.69,WNW,283,0.0,0.0,91,0.00,,,0.00,WeatherCatV1.13B119,2013-03-24 06:16:00,
2013-03-24 01:21:00,57.6,55.0,29.70,NW,309,0.0,1.0,91,0.00,,,0.00,WeatherCatV1.13B119,2013-03-24 06:21:00,
2013-03-24 01:26:00,57.6,55.0,29.73,WSW,255,1.0,2.0,91,0.00,,,0.00,WeatherCatV1.13B119,2013-03-24 06:26:00,
2013-03-24 01:31:00,58.0,55.7,29.75,NNE,32,1.0,5.0,92,0.00,,,0.00,WeatherCatV1.13B119,2013-03-24 06:31:00,
2013-03-24 01:36:00,58.6,56.0,29.75,East,92,0.0,2.0,91,0.00,,,0.00,WeatherCatV1.13B119,2013-03-24 06:36:00,
2013-03-24 01:41:00,59.2,56.3,29.75,ENE,72,0.0,4.0,90,0.00,,,0.00,WeatherCatV1.13B119,2013-03-24 06:41:00,
2013-03-24 01:46:00,59.7,56.4,29.76,ENE,74,0.0,2.0,89,0.00,,,0.00,WeatherCatV1.13B119,2013-03-24 06:46:00,
2013-03-24 01:51:00,60.1,56.5,29.76,NNE,14,0.0,1.0,88,0.00,,,0.00,WeatherCatV1.13B119,2013-03-24 06:51:00,
2013-03-24 01:56:00,60.5,56.6,29.76,SSE,154,2.0,4.0,87,0.00,,,0.00,WeatherCatV1.13B119,2013-03-24 06:56:00,
2013-03-24 02:01:00,60.7,56.5,29.77,NNE,23,2.0,2.0,86,0.00,,,0.00,WeatherCatV1.13B119,2013-03-24 07:01:00,
2013-03-24 02:06:00,60.6,55.7,29.77,NE,34,2.0,6.0,84,0.00,,,0.00,WeatherCatV1.13B119,2013-03-24 07:06:00,
2013-03-24 02:11:00,60.4,55.2,29.78,West,261,1.0,5.0,83,0.00,,,0.00,WeatherCatV1.13B119,2013-03-24 07:11:00,
2013-03-24 02:16:00,60.1,54.2,29.78,NNE,26,2.0,7.0,81,0.00,,,0.00,WeatherCatV1.13B119,2013-03-24 07:16:00,
2013-03-24 02:21:00,59.7,53.9,29.79,SE,131,0.0,4.0,81,0.00,,,0.00,WeatherCatV1.13B119,2013-03-24 07:21:00,
2013-03-24 02:26:00,59.5,53.3,29.79,WSW,254,1.0,2.0,80,0.00,,,0.00,WeatherCatV1.13B119,2013-03-24 07:26:00,
2013-03-24 02:31:00,59.2,52.7,29.81,ESE,102,4.0,7.0,79,0.00,,,0.00,WeatherCatV1.13B119,2013-03-24 07:31:00,
2013-03-24 02:36:00,58.7,52.2,29.82,SSW,198,1.0,3.0,79,0.00,,,0.00,WeatherCatV1.13B119,2013-03-24 07:36:00,
2013-03-24 02:41:00,58.2,51.7,29.84,South,191,0.0,4.0,79,0.00,,,0.00,WeatherCatV1.13B119,2013-03-24 07:41:00,
2013-03-24 02:46:00,58.0,51.9,29.84,WNW,293,6.0,7.0,80,0.00,,,0.00,WeatherCatV1.13B119,2013-03-24 07:46:00,
2013-03-24 02:51:00,57.6,50.8,29.85,NW,319,4.0,6.0,78,0.00,,,0.00,WeatherCatV1.13B119,2013-03-24 07:51:00,
2013-03-24 02:56:00,57.4,50.2,29.86,NNE,28,1.0,10.0,77,0.00,,,0.00,WeatherCatV1.13B119,2013-03-24 07:56:00,
2013-03-24 03:01:00,57.2,49.7,29.87,North,11,5.0,6.0,76,0.00,,,0.00,WeatherCatV1.13B119,2013-03-24 08:01:00,
2013-03-24 03:06:00,56.9,49.4,29.87,WNW,288,4.0,4.0,76,0.00,,,0.00,WeatherCatV1.13B119,2013-03-24 08:06:00,
2013-03-24 03:11:00,56.8,49.3,29.87,North,4,1.0,6.0,76,0.00,,,0.00,WeatherCatV1.13B119,2013-03-24 08:11:00,
2013-03-24 03:16:00,56.6,49.1,29.87,NNE,25,2.0,6.0,76,0.00,,,0.00,WeatherCatV1.13B119,2013-03-24 08:16:00,
2013-03-24 03:21:00,56.4,48.9,29.88,WNW,301,0.0,10.0,76,0.00,,,0.00,WeatherCatV1.13B119,2013-03-24 08:21:00,
2013-03-24 03:26:00,56.2,48.0,29.89,WSW,252,4.0,9.0,74,0.00,,,0.00,WeatherCatV1.13B119,2013-03-24 08:26:00,
2013-03-24 03:31:00,55.9,47.7,29.90,WSW,258,0.0,5.0,74,0.00,,,0.00,WeatherCatV1.13B119,2013-03-24 08:31:00,
2013-03-24 03:36:00,55.8,47.6,29.90,NNW,342,0.0,5.0,74,0.00,,,0.00,WeatherCatV1.13B119,2013-03-24 08:36:00,
2013-03-24 03:41:00,55.5,47.3,29.90,WNW,287,0.0,5.0,74,0.00,,,0.00,WeatherCatV1.13B119,2013-03-24 08:41:00,
2013-03-24 03:46:00,55.2,47.1,29.90,NNW,338,0.0,4.0,74,0.00,,,0.00,WeatherCatV1.13B119,2013-03-24 08:46:00,
2013-03-24 03:51:00,55.0,46.9,29.90,NNW,345,2.0,3.0,74,0.00,,,0.00,WeatherCatV1.13B119,2013-03-24 08:51:00,
2013-03-24 03:56:00,54.8,46.7,29.90,WNW,298,2.0,7.0,74,0.00,,,0.00,WeatherCatV1.13B119,2013-03-24 08:56:00,
2013-03-24 04:01:00,54.5,46.0,29.90,NNW,331,2.0,8.0,73,0.00,,,0.00,WeatherCatV1.13B119,2013-03-24 09:01:00,
2013-03-24 04:06:00,54.2,45.7,29.91,NNW,336,1.0,5.0,73,0.00,,,0.00,WeatherCatV1.13B119,2013-03-24 09:06:00,
2013-03-24 04:11:00,54.0,45.9,29.91,WSW,240,2.0,3.0,74,0.00,,,0.00,WeatherCatV1.13B119,2013-03-24 09:11:00,
2013-03-24 04:16:00,53.6,45.2,29.90,NNE,23,4.0,8.0,73,0.00,,,0.00,WeatherCatV1.13B119,2013-03-24 09:16:00,
2013-03-24 04:21:00,52.9,44.1,29.90,North,11,3.0,9.0,72,0.00,,,0.00,WeatherCatV1.13B119,2013-03-24 09:21:00,
2013-03-24 04:26:00,52.3,44.3,29.90,North,357,1.0,5.0,74,0.00,,,0.00,WeatherCatV1.13B119,2013-03-24 09:26:00,
2013-03-24 04:31:00,51.9,43.9,29.92,East,85,2.0,4.0,74,0.00,,,0.00,WeatherCatV1.13B119,2013-03-24 09:31:00,
2013-03-24 04:36:00,51.4,42.7,29.92,NW,309,1.0,9.0,72,0.00,,,0.00,WeatherCatV1.13B119,2013-03-24 09:36:00,
2013-03-24 04:41:00,50.6,41.5,29.93,NNW,338,3.0,8.0,71,0.00,,,0.00,WeatherCatV1.13B119,2013-03-24 09:41:00,
2013-03-24 04:46:00,50.1,41.1,29.92,NE,46,1.0,6.0,71,0.00,,,0.00,WeatherCatV1.13B119,2013-03-24 09:46:00,
2013-03-24 04:51:00,49.8,41.1,29.92,NNE,23,0.0,4.0,72,0.00,,,0.00,WeatherCatV1.13B119,2013-03-24 09:51:00,
2013-03-24 04:56:00,49.5,41.2,29.93,NNE,16,0.0,2.0,73,0.00,,,0.00,WeatherCatV1.13B119,2013-03-24 09:56:00,
2013-03-24 05:01:00,49.2,40.9,29.93,NNE,25,0.0,4.0,73,0.00,,,0.00,WeatherCatV1.13B119,2013-03-24 10:01:00,
2013-03-24 05:06:00,49.0,41.1,29.93,North,358,1.0,4.0,74,0.00,,,0.00,WeatherCatV1.13B119,2013-03-24 10:06:00,
2013-03-24 05:11:00,48.9,40.3,29.94,NNE,31,5.0,12.0,72,0.00,,,0.00,WeatherCatV1.13B119,2013-03-24 10:11:00,
2013-03-24 05:16:00,48.6,39.6,29.94,SSW,199,3.0,8.0,71,0.00,,,0.00,WeatherCatV1.13B119,2013-03-24 10:16:00,
2013-03-24 05:21:00,48.3,39.7,29.95,NW,307,2.0,5.0,72,0.00,,,0.00,WeatherCatV1.13B119,2013-03-24 10:21:00,
2013-03-24 05:26:00,47.9,38.2,29.95,WNW,302,5.0,8.0,69,0.00,,,0.00,WeatherCatV1.13B119,2013-03-24 10:26:00,
2013-03-24 05:31:00,47.4,37.0,29.96,WSW,239,3.0,7.0,67,0.00,,,0.00,WeatherCatV1.13B119,2013-03-24 10:31:00,
2013-03-24 05:36:00,46.9,36.9,29.96,ENE,60,1.0,5.0,68,0.00,,,0.00,WeatherCatV1.13B119,2013-03-24 10:36:00,
2013-03-24 05:41:00,46.6,37.0,29.97,NW,307,1.0,5.0,69,0.00,,,0.00,WeatherCatV1.13B119,2013-03-24 10:41:00,
2013-03-24 05:46:00,46.3,36.7,29.97,NNW,332,1.0,3.0,69,0.00,,,0.00,WeatherCatV1.13B119,2013-03-24 10:46:00,
2013-03-24 05:51:00,46.0,36.8,29.97,ESE,107,1.0,3.0,70,0.00,,,0.00,WeatherCatV1.13B119,2013-03-24 10:51:00,
2013-03-24 05:56:00,45.8,36.6,29.97,WNW,294,2.0,4.0,70,0.00,,,0.00,WeatherCatV1.13B119,2013-03-24 10:56:00,
2013-03-24 06:01:00,45.7,36.8,29.98,ENE,63,0.0,1.0,71,0.00,,,0.00,WeatherCatV1.13B119,2013-03-24 11:01:00,
2013-03-24 06:06:00,45.5,36.7,29.98,WNW,295,1.0,2.0,71,0.00,,,0.00,WeatherCatV1.13B119,2013-03-24 11:06:00,
2013-03-24 06:11:00,45.3,36.5,29.98,WNW,300,2.0,2.0,71,0.00,,,0.00,WeatherCatV1.13B119,2013-03-24 11:11:00,
2013-03-24 06:16:00,45.2,35.6,29.99,NE,38,4.0,4.0,69,0.00,,,0.00,WeatherCatV1.13B119,2013-03-24 11:16:00,
2013-03-24 06:21:00,45.1,34.8,29.99,ENE,65,3.0,4.0,67,0.00,,,0.00,WeatherCatV1.13B119,2013-03-24 11:21:00,
2013-03-24 06:26:00,44.9,34.6,29.99,WSW,248,1.0,4.0,67,0.00,,,0.00,WeatherCatV1.13B119,2013-03-24 11:26:00,
2013-03-24 06:31:00,44.8,33.4,30.00,WNW,294,1.0,4.0,64,0.00,,,0.00,WeatherCatV1.13B119,2013-03-24 11:31:00,
2013-03-24 06:36:00,44.6,32.8,30.00,West,281,1.0,5.0,63,0.00,,,0.00,WeatherCatV1.13B119,2013-03-24 11:36:00,
2013-03-24 06:41:00,44.4,31.8,30.01,WNW,291,2.0,3.0,61,0.00,,,0.00,WeatherCatV1.13B119,2013-03-24 11:41:00,
2013-03-24 06:46:00,44.3,30.9,30.01,WNW,285,2.0,5.0,59,0.00,,,0.00,WeatherCatV1.13B119,2013-03-24 11:46:00,
2013-03-24 06:51:00,44.0,31.0,30.02,NE,44,1.0,4.0,60,0.00,,,0.00,WeatherCatV1.13B119,2013-03-24 11:51:00,
2013-03-24 06:56:00,43.8,30.8,30.02,WNW,300,1.0,5.0,60,0.00,,,0.00,WeatherCatV1.13B119,2013-03-24 11:56:00,
2013-03-24 07:01:00,43.6,30.6,30.03,NW,324,1.0,4.0,60,0.00,,,0.00,WeatherCatV1.13B119,2013-03-24 12:01:00,
2013-03-24 07:06:00,43.5,30.1,30.03,WSW,238,0.0,4.0,59,0.00,,,0.00,WeatherCatV1.13B119,2013-03-24 12:06:00,
2013-03-24 07:11:00,43.3,29.9,30.03,North,353,1.0,4.0,59,0.00,,,0.00,WeatherCatV1.13B119,2013-03-24 12:11:00,
2013-03-24 07:16:00,43.0,29.7,30.04,NW,308,3.0,4.0,59,0.00,,,0.00,WeatherCatV1.13B119,2013-03-24 12:16:00,
2013-03-24 07:21:00,42.9,29.2,30.05,WSW,245,3.0,3.0,58,0.00,,,0.00,WeatherCatV1.13B119,2013-03-24 12:21:00,
2013-03-24 07:26:00,42.7,29.0,30.05,WNW,282,1.0,5.0,58,0.00,,,0.00,WeatherCatV1.13B119,2013-03-24 12:26:00,
2013-03-24 07:31:00,42.5,28.8,30.06,NW,314,1.0,4.0,58,0.00,,,0.00,WeatherCatV1.13B119,2013-03-24 12:31:00,
2013-03-24 07:36:00,42.4,28.7,30.06,NW,304,2.0,3.0,58,0.00,,,0.00,WeatherCatV1.13B119,2013-03-24 12:36:00,
2013-03-24 07:41:00,42.3,28.2,30.07,NNW,340,3.0,6.0,57,0.00,,,0.00,WeatherCatV1.13B119,2013-03-24 12:41:00,
2013-03-24 07:46:00,42.3,27.7,30.07,WNW,289,2.0,4.0,56,0.00,,,0.00,WeatherCatV1.13B119,2013-03-24 12:46:00,
2013-03-24 07:51:00,42.2,27.6,30.07,NW,304,1.0,3.0,56,0.00,,,0.00,WeatherCatV1.13B119,2013-03-24 12:51:00,
2013-03-24 07:56:00,42.0,27.9,30.08,NW,314,1.0,3.0,57,0.00,,,0.00,WeatherCatV1.13B119,2013-03-24 12:56:00,
2013-03-24 08:01:00,41.9,27.8,30.08,NE,36,1.0,2.0,57,0.00,,,0.00,WeatherCatV1.13B119,2013-03-24 13:01:00,
2013-03-24 08:06:00,41.9,27.8,30.08,West,270,1.0,5.0,57,0.00,,,0.00,WeatherCatV1.13B119,2013-03-24 13:06:00,
2013-03-24 08:11:00,42.0,27.5,30.08,NW,320,3.0,5.0,56,0.00,,,0.00,WeatherCatV1.13B119,2013-03-24 13:11:00,
2013-03-24 08:16:00,42.3,27.7,30.09,NW,321,1.0,2.0,56,0.00,,,0.00,WeatherCatV1.13B119,2013-03-24 13:16:00,
2013-03-24 08:21:00,42.7,27.7,30.09,WNW,297,3.0,6.0,55,0.00,,,0.00,WeatherCatV1.13B119,2013-03-24 13:21:00,
2013-03-24 08:26:00,42.8,28.2,30.09,NNW,345,2.0,4.0,56,0.00,,,0.00,WeatherCatV1.13B119,2013-03-24 13:26:00,
2013-03-24 08:31:00,42.9,27.4,30.10,WNW,302,4.0,5.0,54,0.00,,,0.00,WeatherCatV1.13B119,2013-03-24 13:31:00,
2013-03-24 08:36:00,43.0,26.6,30.11,WNW,302,6.0,10.0,52,0.00,,,0.00,WeatherCatV1.13B119,2013-03-24 13:36:00,
2013-03-24 08:41:00,43.2,26.8,30.11,NNW,332,2.0,4.0,52,0.00,,,0.00,WeatherCatV1.13B119,2013-03-24 13:41:00,
2013-03-24 08:46:00,43.4,26.0,30.11,NNE,25,1.0,9.0,50,0.00,,,0.00,WeatherCatV1.13B119,2013-03-24 13:46:00,
2013-03-24 08:51:00,43.7,26.3,30.11,WNW,295,3.0,6.0,50,0.00,,,0.00,WeatherCatV1.13B119,2013-03-24 13:51:00,
2013-03-24 08:56:00,43.7,26.3,30.12,NE,41,2.0,5.0,50,0.00,,,0.00,WeatherCatV1.13B119,2013-03-24 13:56:00,
2013-03-24 09:01:00,43.8,26.4,30.12,NW,321,2.0,3.0,50,0.00,,,0.00,WeatherCatV1.13B119,2013-03-24 14:01:00,
2013-03-24 09:06:00,44.1,26.7,30.12,NW,315,4.0,8.0,50,0.00,,,0.00,WeatherCatV1.13B119,2013-03-24 14:06:00,
2013-03-24 09:11:00,44.3,26.8,30.12,WNW,297,3.0,3.0,50,0.00,,,0.00,WeatherCatV1.13B119,2013-03-24 14:11:00,
2013-03-24 09:16:00,44.5,26.0,30.13,North,352,3.0,7.0,48,0.00,,,0.00,WeatherCatV1.13B119,2013-03-24 14:16:00,
2013-03-24 09:21:00,44.7,26.2,30.13,WNW,295,4.0,8.0,48,0.00,,,0.00,WeatherCatV1.13B119,2013-03-24 14:21:00,
2013-03-24 09:26:00,44.7,26.2,30.13,NW,312,3.0,8.0,48,0.00,,,0.00,WeatherCatV1.13B119,2013-03-24 14:26:00,
2013-03-24 09:31:00,44.9,25.9,30.13,NW,313,5.0,6.0,47,0.00,,,0.00,WeatherCatV1.13B119,2013-03-24 14:31:00,
2013-03-24 09:36:00,45.0,26.0,30.13,WNW,299,4.0,9.0,47,0.00,,,0.00,WeatherCatV1.13B119,2013-03-24 14:36:00,
2013-03-24 09:41:00,45.2,26.2,30.13,NW,318,3.0,4.0,47,0.00,,,0.00,WeatherCatV1.13B119,2013-03-24 14:41:00,
2013-03-24 09:46:00,45.9,25.8,30.14,WSW,243,4.0,7.0,45,0.00,,,0.00,WeatherCatV1.13B119,2013-03-24 14:46:00,
2013-03-24 09:51:00,46.2,25.5,30.14,NE,34,1.0,4.0,44,0.00,,,0.00,WeatherCatV1.13B119,2013-03-24 14:51:00,
2013-03-24 09:56:00,46.8,26.0,30.14,North,5,1.0,6.0,44,0.00,,,0.00,WeatherCatV1.13B119,2013-03-24 14:56:00,
2013-03-24 10:01:00,47.3,25.9,30.14,WNW,288,6.0,10.0,43,0.00,,,0.00,WeatherCatV1.13B119,2013-03-24 15:01:00,
2013-03-24 10:06:00,47.3,25.4,30.14,NW,322,5.0,8.0,42,0.00,,,0.00,WeatherCatV1.13B119,2013-03-24 15:06:00,
2013-03-24 10:11:00,47.4,26.0,30.14,NNW,346,2.0,6.0,43,0.00,,,0.00,WeatherCatV1.13B119,2013-03-24 15:11:00,
2013-03-24 10:16:00,47.9,25.3,30.14,NNE,31,2.0,8.0,41,0.00,,,0.00,WeatherCatV1.13B119,2013-03-24 15:16:00,
2013-03-24 10:21:00,48.9,26.2,30.14,South,186,1.0,3.0,41,0.00,,,0.00,WeatherCatV1.13B119,2013-03-24 15:21:00,
2013-03-24 10:26:00,49.2,24.7,30.14,NE,41,1.0,9.0,38,0.00,,,0.00,WeatherCatV1.13B119,2013-03-24 15:26:00,
2013-03-24 10:31:00,49.2,25.3,30.14,WNW,293,0.0,5.0,39,0.00,,,0.00,WeatherCatV1.13B119,2013-03-24 15:31:00,
2013-03-24 10:36:00,49.9,25.3,30.15,NNW,345,3.0,8.0,38,0.00,,,0.00,WeatherCatV1.13B119,2013-03-24 15:36:00,
2013-03-24 10:41:00,49.9,24.7,30.14,WNW,300,2.0,7.0,37,0.00,,,0.00,WeatherCatV1.13B119,2013-03-24 15:41:00,
2013-03-24 10:46:00,49.6,25.0,30.14,WSW,243,4.0,7.0,38,0.00,,,0.00,WeatherCatV1.13B119,2013-03-24 15:46:00,
2013-03-24 10:51:00,50.0,25.4,30.14,WSW,237,8.0,8.0,38,0.00,,,0.00,WeatherCatV1.13B119,2013-03-24 15:51:00,
2013-03-24 10:56:00,50.0,24.8,30.14,SW,236,3.0,5.0,37,0.00,,,0.00,WeatherCatV1.13B119,2013-03-24 15:56:00,
2013-03-24 11:01:00,50.8,25.5,30.15,West,272,3.0,7.0,37,0.00,,,0.00,WeatherCatV1.13B119,2013-03-24 16:01:00,
2013-03-24 11:06:00,51.0,25.7,30.15,NW,309,3.0,8.0,37,0.00,,,0.00,WeatherCatV1.13B119,2013-03-24 16:06:00,
2013-03-24 11:11:00,51.1,25.7,30.14,NW,322,3.0,5.0,37,0.00,,,0.00,WeatherCatV1.13B119,2013-03-24 16:11:00,
2013-03-24 11:16:00,51.8,27.0,30.14,SSW,208,1.0,4.0,38,0.00,,,0.00,WeatherCatV1.13B119,2013-03-24 16:16:00,
2013-03-24 11:21:00,52.3,25.5,30.14,West,274,1.0,2.0,35,0.00,,,0.00,WeatherCatV1.13B119,2013-03-24 16:21:00,
2013-03-24 11:26:00,53.6,25.9,30.14,WNW,297,0.0,6.0,34,0.00,,,0.00,WeatherCatV1.13B119,2013-03-24 16:26:00,
2013-03-24 11:31:00,53.2,24.9,30.14,NNE,21,3.0,8.0,33,0.00,,,0.00,WeatherCatV1.13B119,2013-03-24 16:31:00,
2013-03-24 11:36:00,53.2,24.9,30.14,ENE,58,4.0,8.0,33,0.00,,,0.00,WeatherCatV1.13B119,2013-03-24 16:36:00,
2013-03-24 11:41:00,53.5,24.4,30.14,WNW,284,1.0,5.0,32,0.00,,,0.00,WeatherCatV1.13B119,2013-03-24 16:41:00,
2013-03-24 11:46:00,53.8,24.6,30.14,NE,49,2.0,5.0,32,0.00,,,0.00,WeatherCatV1.13B119,2013-03-24 16:46:00,
2013-03-24 11:51:00,54.7,25.4,30.14,NNW,333,2.0,4.0,32,0.00,,,0.00,WeatherCatV1.13B119,2013-03-24 16:51:00,
2013-03-24 11:56:00,54.4,25.2,30.14,North,5,4.0,4.0,32,0.00,,,0.00,WeatherCatV1.13B119,2013-03-24 16:56:00,
2013-03-24 12:01:00,54.4,25.2,30.14,WNW,297,3.0,4.0,32,0.00,,,0.00,WeatherCatV1.13B119,2013-03-24 17:01:00,
2013-03-24 12:06:00,54.6,25.3,30.14,NW,324,2.0,6.0,32,0.00,,,0.00,WeatherCatV1.13B119,2013-03-24 17:06:00,
2013-03-24 12:11:00,55.4,23.7,30.14,West,259,6.0,8.0,29,0.00,,,0.00,WeatherCatV1.13B119,2013-03-24 17:11:00,
2013-03-24 12:16:00,55.7,25.5,30.14,WNW,285,7.0,7.0,31,0.00,,,0.00,WeatherCatV1.13B119,2013-03-24 17:16:00,
2013-03-24 12:21:00,56.2,25.2,30.14,North,354,4.0,5.0,30,0.00,,,0.00,WeatherCatV1.13B119,2013-03-24 17:21:00,
2013-03-24 12:26:00,56.8,25.7,30.13,WSW,246,1.0,3.0,30,0.00,,,0.00,WeatherCatV1.13B119,2013-03-24 17:26:00,
2013-03-24 12:31:00,57.8,24.9,30.13,NNW,345,1.0,7.0,28,0.00,,,0.00,WeatherCatV1.13B119,2013-03-24 17:31:00,
2013-03-24 12:36:00,58.0,24.2,30.12,NNE,23,4.0,6.0,27,0.00,,,0.00,WeatherCatV1.13B119,2013-03-24 17:36:00,
2013-03-24 12:41:00,58.2,23.5,30.13,North,3,2.0,8.0,26,0.00,,,0.00,WeatherCatV1.13B119,2013-03-24 17:41:00,
2013-03-24 12:46:00,58.0,24.2,30.13,South,191,1.0,5.0,27,0.00,,,0.00,WeatherCatV1.13B119,2013-03-24 17:46:00,
2013-03-24 12:51:00,58.0,25.1,30.13,SE,143,1.0,3.0,28,0.00,,,0.00,WeatherCatV1.13B119,2013-03-24 17:51:00,
2013-03-24 12:56:00,58.4,23.7,30.12,NW,304,3.0,6.0,26,0.00,,,0.00,WeatherCatV1.13B119,2013-03-24 17:56:00,
2013-03-24 13:01:00,58.2,24.4,30.12,East,84,5.0,7.0,27,0.00,,,0.00,WeatherCatV1.13B119,2013-03-24 18:01:00,
2013-03-24 13:12:00,58.8,24.0,30.11,North,349,4.0,7.0,26,0.00,,,0.00,WeatherCatV1.13B119,2013-03-24 18:12:00,
2013-03-24 13:17:00,58.5,23.7,30.11,East,100,1.0,8.0,26,0.00,,,0.00,WeatherCatV1.13B119,2013-03-24 18:17:00,
2013-03-24 13:22:00,58.8,24.0,30.12,East,91,3.0,4.0,26,0.00,,,0.00,WeatherCatV1.13B119,2013-03-24 18:22:00,
2013-03-24 13:27:00,59.5,24.6,30.11,NNW,330,4.0,5.0,26,0.00,,,0.00,WeatherCatV1.13B119,2013-03-24 18:27:00,
2013-03-24 13:32:00,60.0,24.1,30.11,ESE,120,1.0,6.0,25,0.00,,,0.00,WeatherCatV1.13B119,2013-03-24 18:32:00,
2013-03-24 13:37:00,60.3,24.3,30.10,East,91,1.0,2.0,25,0.00,,,0.00,WeatherCatV1.13B119,2013-03-24 18:37:00,
2013-03-24 13:42:00,60.9,23.9,30.10,WSW,243,3.0,4.0,24,0.00,,,0.00,WeatherCatV1.13B119,2013-03-24 18:42:00,
2013-03-24 13:47:00,60.7,23.7,30.10,NE,45,2.0,8.0,24,0.00,,,0.00,WeatherCatV1.13B119,2013-03-24 18:47:00,
2013-03-24 13:52:00,60.1,24.2,30.10,NNW,330,3.0,8.0,25,0.00,,,0.00,WeatherCatV1.13B119,2013-03-24 18:52:00,
2013-03-24 13:57:00,60.3,23.4,30.09,North,11,3.0,8.0,24,0.00,,,0.00,WeatherCatV1.13B119,2013-03-24 18:57:00,
2013-03-24 14:02:00,60.2,24.3,30.09,NW,304,7.0,7.0,25,0.00,,,0.00,WeatherCatV1.13B119,2013-03-24 19:02:00,
2013-03-24 14:07:00,60.8,24.8,30.09,WNW,289,3.0,6.0,25,0.00,,,0.00,WeatherCatV1.13B119,2013-03-24 19:07:00,
2013-03-24 14:12:00,60.9,24.8,30.08,East,93,3.0,8.0,25,0.00,,,0.00,WeatherCatV1.13B119,2013-03-24 19:12:00,
2013-03-24 14:17:00,61.2,24.1,30.08,NNE,28,2.0,7.0,24,0.00,,,0.00,WeatherCatV1.13B119,2013-03-24 19:17:00,
2013-03-24 14:22:00,60.8,24.8,30.08,WNW,295,4.0,4.0,25,0.00,,,0.00,WeatherCatV1.13B119,2013-03-24 19:22:00,
2013-03-24 14:27:00,61.3,25.2,30.07,NNW,330,2.0,8.0,25,0.00,,,0.00,WeatherCatV1.13B119,2013-03-24 19:27:00,
2013-03-24 14:32:00,61.8,24.6,30.07,North,7,3.0,5.0,24,0.00,,,0.00,WeatherCatV1.13B119,2013-03-24 19:32:00,
2013-03-24 14:37:00,62.4,24.1,30.07,NE,51,2.0,5.0,23,0.00,,,0.00,WeatherCatV1.13B119,2013-03-24 19:37:00,
2013-03-24 14:42:00,61.7,23.5,30.07,NNW,339,1.0,8.0,23,0.00,,,0.00,WeatherCatV1.13B119,2013-03-24 19:42:00,
2013-03-24 14:47:00,61.9,23.7,30.07,ESE,103,2.0,6.0,23,0.00,,,0.00,WeatherCatV1.13B119,2013-03-24 19:47:00,
2013-03-24 14:52:00,61.7,23.5,30.07,NE,48,1.0,3.0,23,0.00,,,0.00,WeatherCatV1.13B119,2013-03-24 19:52:00,
2013-03-24 14:57:00,61.7,24.5,30.07,NNE,28,3.0,10.0,24,0.00,,,0.00,WeatherCatV1.13B119,2013-03-24 19:57:00,
2013-03-24 15:02:00,61.3,24.2,30.06,NW,307,2.0,5.0,24,0.00,,,0.00,WeatherCatV1.13B119,2013-03-24 20:02:00,
2013-03-24 15:07:00,62.3,25.1,30.06,ESE,115,4.0,4.0,24,0.00,,,0.00,WeatherCatV1.13B119,2013-03-24 20:07:00,
2013-03-24 15:12:00,63.0,24.6,30.06,ENE,63,3.0,6.0,23,0.00,,,0.00,WeatherCatV1.13B119,2013-03-24 20:12:00,
2013-03-24 15:17:00,63.6,24.1,30.06,WNW,301,1.0,6.0,22,0.00,,,0.00,WeatherCatV1.13B119,2013-03-24 20:17:00,
2013-03-24 15:22:00,63.0,23.6,30.05,NE,53,2.0,12.0,22,0.00,,,0.00,WeatherCatV1.13B119,2013-03-24 20:22:00,
2013-03-24 15:27:00,63.0,23.6,30.05,North,7,5.0,5.0,22,0.00,,,0.00,WeatherCatV1.13B119,2013-03-24 20:27:00,
2013-03-24 15:32:00,63.6,24.1,30.05,NNW,348,1.0,4.0,22,0.00,,,0.00,WeatherCatV1.13B119,2013-03-24 20:32:00,
2013-03-24 15:37:00,63.8,24.2,30.05,South,174,2.0,2.0,22,0.00,,,0.00,WeatherCatV1.13B119,2013-03-24 20:37:00,
2013-03-24 15:42:00,63.9,24.3,30.04,ESE,114,3.0,5.0,22,0.00,,,0.00,WeatherCatV1.13B119,2013-03-24 20:42:00,
2013-03-24 15:47:00,64.2,23.5,30.04,NW,314,2.0,8.0,21,0.00,,,0.00,WeatherCatV1.13B119,2013-03-24 20:47:00,
2013-03-24 15:52:00,63.7,24.1,30.04,ENE,64,2.0,4.0,22,0.00,,,0.00,WeatherCatV1.13B119,2013-03-24 20:52:00,
2013-03-24 15:57:00,63.5,25.0,30.04,NNE,20,5.0,5.0,23,0.00,,,0.00,WeatherCatV1.13B119,2013-03-24 20:57:00,
2013-03-24 16:02:00,62.8,23.4,30.04,NW,326,2.0,6.0,22,0.00,,,0.00,WeatherCatV1.13B119,2013-03-24 21:02:00,
2013-03-24 16:07:00,63.0,23.6,30.03,NNE,17,2.0,4.0,22,0.00,,,0.00,WeatherCatV1.13B119,2013-03-24 21:07:00,
2013-03-24 16:12:00,63.1,24.7,30.03,East,90,1.0,6.0,23,0.00,,,0.00,WeatherCatV1.13B119,2013-03-24 21:12:00,
2013-03-24 16:17:00,63.3,23.8,30.03,West,276,2.0,5.0,22,0.00,,,0.00,WeatherCatV1.13B119,2013-03-24 21:17:00,
2013-03-24 16:22:00,62.8,23.4,30.03,NNE,15,2.0,4.0,22,0.00,,,0.00,WeatherCatV1.13B119,2013-03-24 21:22:00,
2013-03-24 16:27:00,63.2,23.7,30.03,NE,36,2.0,5.0,22,0.00,,,0.00,WeatherCatV1.13B119,2013-03-24 21:27:00,
2013-03-24 16:32:00,63.2,22.6,30.03,NW,319,3.0,5.0,21,0.00,,,0.00,WeatherCatV1.13B119,2013-03-24 21:32:00,
2013-03-24 16:37:00,62.9,23.5,30.03,North,4,6.0,7.0,22,0.00,,,0.00,WeatherCatV1.13B119,2013-03-24 21:37:00,
2013-03-24 16:42:00,63.1,23.6,30.03,NNW,333,2.0,5.0,22,0.00,,,0.00,WeatherCatV1.13B119,2013-03-24 21:42:00,
2013-03-24 16:47:00,63.1,24.7,30.03,WNW,286,3.0,4.0,23,0.00,,,0.00,WeatherCatV1.13B119,2013-03-24 21:47:00,
2013-03-24 16:52:00,63.0,22.5,30.03,NW,320,2.0,4.0,21,0.00,,,0.00,WeatherCatV1.13B119,2013-03-24 21:52:00,
2013-03-24 16:57:00,63.1,23.6,30.03,NNW,338,2.0,4.0,22,0.00,,,0.00,WeatherCatV1.13B119,2013-03-24 21:57:00,
2013-03-24 17:02:00,63.7,23.0,30.03,SE,129,1.0,1.0,21,0.00,,,0.00,WeatherCatV1.13B119,2013-03-24 22:02:00,
2013-03-24 17:07:00,63.5,21.7,30.03,WNW,296,1.0,3.0,20,0.00,,,0.00,WeatherCatV1.13B119,2013-03-24 22:07:00,
2013-03-24 17:12:00,63.2,22.6,30.02,North,2,1.0,5.0,21,0.00,,,0.00,WeatherCatV1.13B119,2013-03-24 22:12:00,
2013-03-24 17:17:00,63.1,22.5,30.02,WNW,302,1.0,3.0,21,0.00,,,0.00,WeatherCatV1.13B119,2013-03-24 22:17:00,
2013-03-24 17:22:00,62.7,21.1,30.02,NE,48,3.0,4.0,20,0.00,,,0.00,WeatherCatV1.13B119,2013-03-24 22:22:00,
2013-03-24 17:27:00,62.5,22.0,30.02,WNW,289,2.0,8.0,21,0.00,,,0.00,WeatherCatV1.13B119,2013-03-24 22:27:00,
2013-03-24 17:32:00,62.4,20.8,30.03,NW,322,3.0,9.0,20,0.00,,,0.00,WeatherCatV1.13B119,2013-03-24 22:32:00,
2013-03-24 17:37:00,61.5,22.3,30.02,East,81,1.0,5.0,22,0.00,,,0.00,WeatherCatV1.13B119,2013-03-24 22:37:00,
2013-03-24 17:42:00,62.0,22.7,30.02,NW,306,4.0,4.0,22,0.00,,,0.00,WeatherCatV1.13B119,2013-03-24 22:42:00,
2013-03-24 17:47:00,61.5,22.3,30.02,ESE,113,2.0,3.0,22,0.00,,,0.00,WeatherCatV1.13B119,2013-03-24 22:47:00,
2013-03-24 17:52:00,61.2,22.1,30.02,NW,310,2.0,6.0,22,0.00,,,0.00,WeatherCatV1.13B119,2013-03-24 22:52:00,
2013-03-24 17:57:00,61.6,22.4,30.02,West,259,1.0,2.0,22,0.00,,,0.00,WeatherCatV1.13B119,2013-03-24 22:57:00,
2013-03-24 18:02:00,62.0,21.6,30.02,North,3,2.0,3.0,21,0.00,,,0.00,WeatherCatV1.13B119,2013-03-24 23:02:00,
2013-03-24 18:07:00,61.6,22.4,30.03,SW,228,1.0,3.0,22,0.00,,,0.00,WeatherCatV1.13B119,2013-03-24 23:07:00,
2013-03-24 18:12:00,61.2,22.1,30.03,NW,317,2.0,4.0,22,0.00,,,0.00,WeatherCatV1.13B119,2013-03-24 23:12:00,
2013-03-24 18:17:00,60.9,22.9,30.02,NE,46,0.0,2.0,23,0.00,,,0.00,WeatherCatV1.13B119,2013-03-24 23:17:00,
2013-03-24 18:22:00,60.9,21.8,30.03,NW,325,0.0,7.0,22,0.00,,,0.00,WeatherCatV1.13B119,2013-03-24 23:22:00,
2013-03-24 18:27:00,60.4,21.4,30.03,North,357,1.0,4.0,22,0.00,,,0.00,WeatherCatV1.13B119,2013-03-24 23:27:00,
2013-03-24 18:32:00,59.9,22.0,30.03,SW,223,2.0,5.0,23,0.00,,,0.00,WeatherCatV1.13B119,2013-03-24 23:32:00,
2013-03-24 18:37:00,59.6,20.7,30.03,NNW,333,3.0,5.0,22,0.00,,,0.00,WeatherCatV1.13B119,2013-03-24 23:37:00,
2013-03-24 18:42:00,59.2,21.4,30.03,ENE,74,1.0,4.0,23,0.00,,,0.00,WeatherCatV1.13B119,2013-03-24 23:42:00,
2013-03-24 18:47:00,58.1,20.5,30.03,NE,34,1.0,5.0,23,0.00,,,0.00,WeatherCatV1.13B119,2013-03-24 23:47:00,
2013-03-24 18:52:00,57.6,21.1,30.03,SE,136,2.0,5.0,24,0.00,,,0.00,WeatherCatV1.13B119,2013-03-24 23:52:00,
2013-03-24 18:57:00,57.0,21.5,30.03,NNW,329,1.0,1.0,25,0.00,,,0.00,WeatherCatV1.13B119,2013-03-24 23:57:00,
2013-03-24 19:02:00,56.5,21.1,30.04,North,352,1.0,3.0,25,0.00,,,0.00,WeatherCatV1.13B119,2013-03-25 00:02:00,
2013-03-24 19:07:00,56.1,21.7,30.04,NNW,333,0.0,1.0,26,0.00,,,0.00,WeatherCatV1.13B119,2013-03-25 00:07:00,
2013-03-24 19:12:00,55.7,22.2,30.04,NW,320,0.0,2.0,27,0.00,,,0.00,WeatherCatV1.13B119,2013-03-25 00:12:00,
2013-03-24 19:17:00,55.4,21.1,30.04,NNW,342,0.0,1.0,26,0.00,,,0.00,WeatherCatV1.13B119,2013-03-25 00:17:00,
2013-03-24 19:22:00,55.0,21.6,30.04,North,10,1.0,2.0,27,0.00,,,0.00,WeatherCatV1.13B119,2013-03-25 00:22:00,
2013-03-24 19:27:00,54.6,21.3,30.04,NW,308,2.0,2.0,27,0.00,,,0.00,WeatherCatV1.13B119,2013-03-25 00:27:00,
2013-03-24 19:32:00,54.1,20.9,30.04,ESE,122,0.0,1.0,27,0.00,,,0.00,WeatherCatV1.13B119,2013-03-25 00:32:00,
2013-03-24 19:37:00,53.8,20.6,30.05,West,264,1.0,2.0,27,0.00,,,0.00,WeatherCatV1.13B119,2013-03-25 00:37:00,
2013-03-24 19:42:00,53.4,21.1,30.05,NNW,344,0.0,3.0,28,0.00,,,0.00,WeatherCatV1.13B119,2013-03-25 00:42:00,
2013-03-24 19:47:00,53.0,20.8,30.05,North,9,1.0,4.0,28,0.00,,,0.00,WeatherCatV1.13B119,2013-03-25 00:47:00,
2013-03-24 19:52:00,52.7,20.5,30.05,NW,316,0.0,0.0,28,0.00,,,0.00,WeatherCatV1.13B119,2013-03-25 00:52:00,
2013-03-24 19:57:00,52.3,21.8,30.05,WNW,297,0.0,1.0,30,0.00,,,0.00,WeatherCatV1.13B119,2013-03-25 00:57:00,
2013-03-24 20:02:00,51.8,22.1,30.05,WNW,297,0.0,1.0,31,0.00,,,0.00,WeatherCatV1.13B119,2013-03-25 01:02:00,
2013-03-24 20:07:00,51.1,22.3,30.05,WNW,293,0.0,0.0,32,0.00,,,0.00,WeatherCatV1.13B119,2013-03-25 01:07:00,
2013-03-24 20:12:00,50.5,22.5,30.06,WNW,293,0.0,0.0,33,0.00,,,0.00,WeatherCatV1.13B119,2013-03-25 01:12:00,
2013-03-24 20:17:00,49.8,23.3,30.06,WNW,293,0.0,0.0,35,0.00,,,0.00,WeatherCatV1.13B119,2013-03-25 01:17:00,
2013-03-24 20:22:00,49.0,23.9,30.06,WNW,293,0.0,0.0,37,0.00,,,0.00,WeatherCatV1.13B119,2013-03-25 01:22:00,
2013-03-24 20:27:00,48.3,23.3,30.06,WNW,293,0.0,0.0,37,0.00,,,0.00,WeatherCatV1.13B119,2013-03-25 01:27:00,
2013-03-24 20:32:00,47.7,23.4,30.07,WNW,293,0.0,0.0,38,0.00,,,0.00,WeatherCatV1.13B119,2013-03-25 01:32:00,
2013-03-24 20:37:00,47.1,23.4,30.07,WNW,293,0.0,0.0,39,0.00,,,0.00,WeatherCatV1.13B119,2013-03-25 01:37:00,
2013-03-24 20:42:00,46.6,23.6,30.07,WNW,293,0.0,0.0,40,0.00,,,0.00,WeatherCatV1.13B119,2013-03-25 01:42:00,
2013-03-24 20:47:00,46.2,23.8,30.07,WNW,293,0.0,1.0,41,0.00,,,0.00,WeatherCatV1.13B119,2013-03-25 01:47:00,
2013-03-24 20:52:00,45.9,24.1,30.08,WNW,293,0.0,0.0,42,0.00,,,0.00,WeatherCatV1.13B119,2013-03-25 01:52:00,
2013-03-24 20:57:00,45.6,23.8,30.08,WNW,293,0.0,1.0,42,0.00,,,0.00,WeatherCatV1.13B119,2013-03-25 01:57:00,
2013-03-24 21:02:00,45.5,23.8,30.08,WNW,293,0.0,1.0,42,0.00,,,0.00,WeatherCatV1.13B119,2013-03-25 02:02:00,
2013-03-24 21:07:00,45.2,24.0,30.09,WNW,293,0.0,0.0,43,0.00,,,0.00,WeatherCatV1.13B119,2013-03-25 02:07:00,
2013-03-24 21:12:00,44.8,24.2,30.09,WNW,293,0.0,0.0,44,0.00,,,0.00,WeatherCatV1.13B119,2013-03-25 02:12:00,
2013-03-24 21:17:00,44.4,24.4,30.09,WNW,293,0.0,0.0,45,0.00,,,0.00,WeatherCatV1.13B119,2013-03-25 02:17:00,
2013-03-24 21:22:00,44.2,24.2,30.09,WNW,293,0.0,0.0,45,0.00,,,0.00,WeatherCatV1.13B119,2013-03-25 02:22:00,
2013-03-24 21:27:00,43.9,24.5,30.10,WNW,293,0.0,0.0,46,0.00,,,0.00,WeatherCatV1.13B119,2013-03-25 02:27:00,
2013-03-24 21:32:00,43.4,24.0,30.10,WNW,293,0.0,0.0,46,0.00,,,0.00,WeatherCatV1.13B119,2013-03-25 02:32:00,
2013-03-24 21:37:00,43.1,24.3,30.10,WNW,293,0.0,0.0,47,0.00,,,0.00,WeatherCatV1.13B119,2013-03-25 02:37:00,
2013-03-24 21:42:00,42.8,24.5,30.10,WNW,293,0.0,0.0,48,0.00,,,0.00,WeatherCatV1.13B119,2013-03-25 02:42:00,
2013-03-24 21:47:00,42.7,24.4,30.11,WNW,293,0.0,0.0,48,0.00,,,0.00,WeatherCatV1.13B119,2013-03-25 02:47:00,
2013-03-24 21:52:00,42.7,23.9,30.11,WNW,293,0.0,0.0,47,0.00,,,0.00,WeatherCatV1.13B119,2013-03-25 02:52:00,
2013-03-24 21:57:00,42.4,24.1,30.11,WNW,293,0.0,0.0,48,0.00,,,0.00,WeatherCatV1.13B119,2013-03-25 02:57:00,
2013-03-24 22:02:00,42.0,24.7,30.12,WNW,293,0.0,0.0,50,0.00,,,0.00,WeatherCatV1.13B119,2013-03-25 03:02:00,
2013-03-24 22:07:00,41.6,24.4,30.12,WNW,293,0.0,0.0,50,0.00,,,0.00,WeatherCatV1.13B119,2013-03-25 03:07:00,
2013-03-24 22:12:00,41.4,24.6,30.12,WNW,293,0.0,0.0,51,0.00,,,0.00,WeatherCatV1.13B119,2013-03-25 03:12:00,
2013-03-24 22:17:00,41.3,25.0,30.12,WNW,293,0.0,0.0,52,0.00,,,0.00,WeatherCatV1.13B119,2013-03-25 03:17:00,
2013-03-24 22:22:00,41.3,25.0,30.13,WNW,294,0.0,1.0,52,0.00,,,0.00,WeatherCatV1.13B119,2013-03-25 03:22:00,
2013-03-24 22:27:00,41.4,25.6,30.13,WNW,294,0.0,0.0,53,0.00,,,0.00,WeatherCatV1.13B119,2013-03-25 03:27:00,
2013-03-24 22:32:00,41.3,25.5,30.13,WNW,294,0.0,0.0,53,0.00,,,0.00,WeatherCatV1.13B119,2013-03-25 03:32:00,
2013-03-24 22:37:00,41.3,25.5,30.13,WNW,293,0.0,0.0,53,0.00,,,0.00,WeatherCatV1.13B119,2013-03-25 03:37:00,
2013-03-24 22:42:00,41.2,25.8,30.13,WNW,294,0.0,0.0,54,0.00,,,0.00,WeatherCatV1.13B119,2013-03-25 03:42:00,
2013-03-24 22:47:00,41.0,25.6,30.14,WNW,293,0.0,0.0,54,0.00,,,0.00,WeatherCatV1.13B119,2013-03-25 03:47:00,
2013-03-24 22:52:00,41.1,25.3,30.14,WNW,293,0.0,1.0,53,0.00,,,0.00,WeatherCatV1.13B119,2013-03-25 03:52:00,
2013-03-24 22:57:00,41.1,25.7,30.14,WNW,294,0.0,0.0,54,0.00,,,0.00,WeatherCatV1.13B119,2013-03-25 03:57:00,
2013-03-24 23:00:00,41.0,25.2,30.14,WNW,293,0.0,0.0,53,0.00,,,0.00,WeatherCatV1.13B119,2013-03-25 04:00:00,
2013-03-24 23:01:00,41.0,25.2,30.14,WNW,293,0.0,0.0,53,0.00,,,0.00,WeatherCatV1.13B119,2013-03-25 04:01:00,
2013-03-24 23:06:00,40.8,25.5,30.15,WNW,293,0.0,0.0,54,0.00,,,0.00,WeatherCatV1.13B119,2013-03-25 04:06:00,
2013-03-24 23:11:00,40.8,25.0,30.15,WNW,294,0.0,0.0,53,0.00,,,0.00,WeatherCatV1.13B119,2013-03-25 04:11:00,
2013-03-24 23:16:00,40.8,25.0,30.15,WNW,293,0.0,0.0,53,0.00,,,0.00,WeatherCatV1.13B119,2013-03-25 04:16:00,
2013-03-24 23:21:00,40.6,24.8,30.15,WNW,294,0.0,0.0,53,0.00,,,0.00,WeatherCatV1.13B119,2013-03-25 04:21:00,
2013-03-24 23:26:00,40.6,25.3,30.15,WNW,293,0.0,0.0,54,0.00,,,0.00,WeatherCatV1.13B119,2013-03-25 04:26:00,
2013-03-24 23:31:00,40.6,25.3,30.15,WNW,294,0.0,0.0,54,0.00,,,0.00,WeatherCatV1.13B119,2013-03-25 04:31:00,
2013-03-24 23:36:00,40.6,25.3,30.15,WNW,293,0.0,0.0,54,0.00,,,0.00,WeatherCatV1.13B119,2013-03-25 04:36:00,
2013-03-24 23:41:00,40.3,25.4,30.16,WNW,293,0.0,0.0,55,0.00,,,0.00,WeatherCatV1.13B119,2013-03-25 04:41:00,
2013-03-24 23:46:00,39.9,25.1,30.15,WNW,294,0.0,0.0,55,0.00,,,0.00,WeatherCatV1.13B119,2013-03-25 04:46:00,
2013-03-24 23:51:00,39.7,25.3,30.15,WNW,294,0.0,0.0,56,0.00,,,0.00,WeatherCatV1.13B119,2013-03-25 04:51:00,
2013-03-24 23:56:00,39.3,25.4,30.16,WNW,294,0.0,0.0,57,0.00,,,0.00,WeatherCatV1.13B119,2013-03-25 04:56:00,